sensor_id;sensor_type;location;lat;lon;timestamp;P1;durP1;ratioP1;P2;durP2;ratioP2
6436;SDS011;3251;53.550;9.918;2022-10-22T00:00:07;66.10;;;37.43;;
6436;SDS011;3251;53.550;9.918;2022-10-22T00:02:33;50.40;;;29.10;;
6436;SDS011;3251;53.550;9.918;2022-10-22T00:04:59;40.97;;;25.27;;
6436;SDS011;3251;53.550;9.918;2022-10-22T00:07:25;45.20;;;27.40;;
6436;SDS011;3251;53.550;9.918;2022-10-22T00:09:52;47.27;;;26.10;;
6436;SDS011;3251;53.550;9.918;2022-10-22T00:12:18;48.60;;;26.70;;
6436;SDS011;3251;53.550;9.918;2022-10-22T00:14:45;39.93;;;24.37;;
6436;SDS011;3251;53.550;9.918;2022-10-22T00:17:12;54.20;;;25.03;;
6436;SDS011;3251;53.550;9.918;2022-10-22T00:19:38;40.20;;;25.37;;
6436;SDS011;3251;53.550;9.918;2022-10-22T00:22:04;43.43;;;23.80;;
6436;SDS011;3251;53.550;9.918;2022-10-22T00:24:31;40.43;;;24.83;;
6436;SDS011;3251;53.550;9.918;2022-10-22T00:26:57;54.00;;;25.33;;
6436;SDS011;3251;53.550;9.918;2022-10-22T00:29:23;39.57;;;23.83;;
6436;SDS011;3251;53.550;9.918;2022-10-22T00:31:50;37.97;;;23.43;;
6436;SDS011;3251;53.550;9.918;2022-10-22T00:34:16;46.30;;;24.30;;
6436;SDS011;3251;53.550;9.918;2022-10-22T00:36:44;37.97;;;25.80;;
6436;SDS011;3251;53.550;9.918;2022-10-22T00:39:10;37.80;;;22.90;;
6436;SDS011;3251;53.550;9.918;2022-10-22T00:41:37;48.70;;;24.73;;
6436;SDS011;3251;53.550;9.918;2022-10-22T00:44:04;44.43;;;22.80;;
6436;SDS011;3251;53.550;9.918;2022-10-22T00:46:30;45.60;;;24.13;;
6436;SDS011;3251;53.550;9.918;2022-10-22T00:48:57;40.77;;;24.10;;
6436;SDS011;3251;53.550;9.918;2022-10-22T00:51:25;44.10;;;22.63;;
6436;SDS011;3251;53.550;9.918;2022-10-22T00:53:54;40.70;;;24.10;;
6436;SDS011;3251;53.550;9.918;2022-10-22T00:56:22;43.83;;;23.20;;
6436;SDS011;3251;53.550;9.918;2022-10-22T00:58:51;39.70;;;24.10;;
6436;SDS011;3251;53.550;9.918;2022-10-22T01:01:24;47.53;;;25.13;;
6436;SDS011;3251;53.550;9.918;2022-10-22T01:03:51;36.40;;;23.30;;
6436;SDS011;3251;53.550;9.918;2022-10-22T01:06:18;65.60;;;25.10;;
6436;SDS011;3251;53.550;9.918;2022-10-22T01:16:18;45.60;;;23.73;;
6436;SDS011;3251;53.550;9.918;2022-10-22T01:18:48;34.00;;;23.50;;
6436;SDS011;3251;53.550;9.918;2022-10-22T01:21:24;45.97;;;23.37;;
6436;SDS011;3251;53.550;9.918;2022-10-22T01:26:27;39.37;;;23.43;;
6436;SDS011;3251;53.550;9.918;2022-10-22T01:29:01;42.90;;;23.63;;
6436;SDS011;3251;53.550;9.918;2022-10-22T01:31:37;40.90;;;23.47;;
6436;SDS011;3251;53.550;9.918;2022-10-22T01:34:05;42.17;;;23.07;;
6436;SDS011;3251;53.550;9.918;2022-10-22T01:36:32;40.60;;;22.40;;
6436;SDS011;3251;53.550;9.918;2022-10-22T01:39:00;35.70;;;22.10;;
6436;SDS011;3251;53.550;9.918;2022-10-22T01:41:27;48.00;;;23.87;;
6436;SDS011;3251;53.550;9.918;2022-10-22T01:43:54;39.47;;;23.70;;
6436;SDS011;3251;53.550;9.918;2022-10-22T01:46:20;46.47;;;22.73;;
6436;SDS011;3251;53.550;9.918;2022-10-22T01:59:07;45.50;;;24.37;;
6436;SDS011;3251;53.550;9.918;2022-10-22T02:04:19;39.70;;;21.50;;
6436;SDS011;3251;53.550;9.918;2022-10-22T02:06:49;47.53;;;25.50;;
6436;SDS011;3251;53.550;9.918;2022-10-22T02:09:16;46.90;;;25.13;;
6436;SDS011;3251;53.550;9.918;2022-10-22T02:11:43;41.70;;;23.40;;
6436;SDS011;3251;53.550;9.918;2022-10-22T02:14:10;40.20;;;24.17;;
6436;SDS011;3251;53.550;9.918;2022-10-22T02:16:38;45.77;;;24.23;;
6436;SDS011;3251;53.550;9.918;2022-10-22T02:19:08;48.90;;;23.97;;
6436;SDS011;3251;53.550;9.918;2022-10-22T02:21:36;44.33;;;23.77;;
6436;SDS011;3251;53.550;9.918;2022-10-22T02:24:02;44.83;;;25.87;;
6436;SDS011;3251;53.550;9.918;2022-10-22T02:26:30;43.50;;;24.43;;
6436;SDS011;3251;53.550;9.918;2022-10-22T02:31:25;41.57;;;23.63;;
6436;SDS011;3251;53.550;9.918;2022-10-22T02:33:53;38.43;;;22.33;;
6436;SDS011;3251;53.550;9.918;2022-10-22T02:36:21;37.60;;;23.17;;
6436;SDS011;3251;53.550;9.918;2022-10-22T02:38:48;36.07;;;22.37;;
6436;SDS011;3251;53.550;9.918;2022-10-22T02:41:15;43.43;;;23.53;;
6436;SDS011;3251;53.550;9.918;2022-10-22T02:43:49;40.40;;;22.77;;
6436;SDS011;3251;53.550;9.918;2022-10-22T02:46:15;40.33;;;22.23;;
6436;SDS011;3251;53.550;9.918;2022-10-22T02:48:42;51.47;;;22.77;;
6436;SDS011;3251;53.550;9.918;2022-10-22T02:51:08;36.90;;;22.77;;
6436;SDS011;3251;53.550;9.918;2022-10-22T02:53:34;49.50;;;22.07;;
6436;SDS011;3251;53.550;9.918;2022-10-22T02:56:00;42.40;;;21.60;;
6436;SDS011;3251;53.550;9.918;2022-10-22T02:58:26;48.43;;;24.60;;
6436;SDS011;3251;53.550;9.918;2022-10-22T03:00:52;41.87;;;22.00;;
6436;SDS011;3251;53.550;9.918;2022-10-22T03:03:18;41.80;;;23.70;;
6436;SDS011;3251;53.550;9.918;2022-10-22T03:05:44;37.87;;;24.50;;
6436;SDS011;3251;53.550;9.918;2022-10-22T03:08:10;38.47;;;21.70;;
6436;SDS011;3251;53.550;9.918;2022-10-22T03:10:36;56.90;;;23.27;;
6436;SDS011;3251;53.550;9.918;2022-10-22T03:13:02;39.47;;;22.40;;
6436;SDS011;3251;53.550;9.918;2022-10-22T03:15:28;41.10;;;23.10;;
6436;SDS011;3251;53.550;9.918;2022-10-22T03:17:54;51.63;;;24.43;;
6436;SDS011;3251;53.550;9.918;2022-10-22T03:20:20;43.43;;;24.07;;
6436;SDS011;3251;53.550;9.918;2022-10-22T03:22:46;48.40;;;24.00;;
6436;SDS011;3251;53.550;9.918;2022-10-22T03:25:13;39.30;;;24.73;;
6436;SDS011;3251;53.550;9.918;2022-10-22T03:27:39;35.83;;;22.10;;
6436;SDS011;3251;53.550;9.918;2022-10-22T03:30:06;43.03;;;22.70;;
6436;SDS011;3251;53.550;9.918;2022-10-22T03:32:33;40.70;;;23.97;;
6436;SDS011;3251;53.550;9.918;2022-10-22T03:34:59;51.90;;;26.70;;
6436;SDS011;3251;53.550;9.918;2022-10-22T03:37:25;46.87;;;22.50;;
6436;SDS011;3251;53.550;9.918;2022-10-22T03:39:52;40.07;;;23.20;;
6436;SDS011;3251;53.550;9.918;2022-10-22T03:42:19;47.37;;;25.47;;
6436;SDS011;3251;53.550;9.918;2022-10-22T03:44:46;42.70;;;24.00;;
6436;SDS011;3251;53.550;9.918;2022-10-22T03:47:12;33.90;;;21.43;;
6436;SDS011;3251;53.550;9.918;2022-10-22T03:49:39;42.23;;;23.27;;
6436;SDS011;3251;53.550;9.918;2022-10-22T03:52:11;44.93;;;23.40;;
6436;SDS011;3251;53.550;9.918;2022-10-22T03:54:38;54.53;;;25.33;;
6436;SDS011;3251;53.550;9.918;2022-10-22T03:57:04;46.10;;;24.47;;
6436;SDS011;3251;53.550;9.918;2022-10-22T03:59:37;50.83;;;26.63;;
6436;SDS011;3251;53.550;9.918;2022-10-22T04:02:03;44.20;;;24.30;;
6436;SDS011;3251;53.550;9.918;2022-10-22T04:04:30;41.93;;;25.80;;
6436;SDS011;3251;53.550;9.918;2022-10-22T04:06:56;44.87;;;24.50;;
6436;SDS011;3251;53.550;9.918;2022-10-22T04:09:22;56.27;;;26.90;;
6436;SDS011;3251;53.550;9.918;2022-10-22T04:11:48;46.77;;;25.17;;
6436;SDS011;3251;53.550;9.918;2022-10-22T04:14:14;58.00;;;26.03;;
6436;SDS011;3251;53.550;9.918;2022-10-22T04:16:40;55.27;;;26.23;;
6436;SDS011;3251;53.550;9.918;2022-10-22T04:19:07;45.67;;;26.83;;
6436;SDS011;3251;53.550;9.918;2022-10-22T04:21:33;48.30;;;27.33;;
6436;SDS011;3251;53.550;9.918;2022-10-22T04:24:00;54.53;;;26.40;;
6436;SDS011;3251;53.550;9.918;2022-10-22T04:26:26;49.87;;;25.60;;
6436;SDS011;3251;53.550;9.918;2022-10-22T04:28:52;53.73;;;26.33;;
6436;SDS011;3251;53.550;9.918;2022-10-22T04:31:19;44.80;;;25.33;;
6436;SDS011;3251;53.550;9.918;2022-10-22T04:33:46;53.23;;;25.37;;
6436;SDS011;3251;53.550;9.918;2022-10-22T04:36:13;50.10;;;26.70;;
6436;SDS011;3251;53.550;9.918;2022-10-22T04:38:40;47.90;;;25.40;;
6436;SDS011;3251;53.550;9.918;2022-10-22T04:41:10;52.27;;;26.17;;
6436;SDS011;3251;53.550;9.918;2022-10-22T04:43:37;55.50;;;26.97;;
6436;SDS011;3251;53.550;9.918;2022-10-22T04:46:03;52.63;;;26.00;;
6436;SDS011;3251;53.550;9.918;2022-10-22T04:48:29;51.33;;;25.60;;
6436;SDS011;3251;53.550;9.918;2022-10-22T04:50:58;53.60;;;28.73;;
6436;SDS011;3251;53.550;9.918;2022-10-22T04:53:25;40.67;;;24.80;;
6436;SDS011;3251;53.550;9.918;2022-10-22T04:55:51;55.77;;;27.00;;
6436;SDS011;3251;53.550;9.918;2022-10-22T04:58:17;49.60;;;27.10;;
6436;SDS011;3251;53.550;9.918;2022-10-22T05:00:43;49.57;;;27.17;;
6436;SDS011;3251;53.550;9.918;2022-10-22T05:03:09;47.23;;;25.10;;
6436;SDS011;3251;53.550;9.918;2022-10-22T05:05:35;47.63;;;26.30;;
6436;SDS011;3251;53.550;9.918;2022-10-22T05:08:01;37.83;;;24.47;;
6436;SDS011;3251;53.550;9.918;2022-10-22T05:10:27;58.60;;;24.93;;
6436;SDS011;3251;53.550;9.918;2022-10-22T05:12:53;47.60;;;24.00;;
6436;SDS011;3251;53.550;9.918;2022-10-22T05:15:19;47.13;;;25.57;;
6436;SDS011;3251;53.550;9.918;2022-10-22T05:17:45;62.20;;;30.13;;
6436;SDS011;3251;53.550;9.918;2022-10-22T05:20:11;46.10;;;25.97;;
6436;SDS011;3251;53.550;9.918;2022-10-22T05:22:37;43.20;;;25.40;;
6436;SDS011;3251;53.550;9.918;2022-10-22T05:25:03;59.43;;;27.33;;
6436;SDS011;3251;53.550;9.918;2022-10-22T05:27:30;53.87;;;28.07;;
6436;SDS011;3251;53.550;9.918;2022-10-22T05:29:56;50.63;;;26.60;;
6436;SDS011;3251;53.550;9.918;2022-10-22T05:32:22;47.57;;;27.17;;
6436;SDS011;3251;53.550;9.918;2022-10-22T05:34:48;45.80;;;27.80;;
6436;SDS011;3251;53.550;9.918;2022-10-22T05:37:14;53.60;;;27.27;;
6436;SDS011;3251;53.550;9.918;2022-10-22T05:39:40;49.50;;;26.63;;
6436;SDS011;3251;53.550;9.918;2022-10-22T05:42:06;52.60;;;28.57;;
6436;SDS011;3251;53.550;9.918;2022-10-22T05:44:32;45.93;;;29.10;;
6436;SDS011;3251;53.550;9.918;2022-10-22T05:46:58;42.40;;;25.90;;
6436;SDS011;3251;53.550;9.918;2022-10-22T05:49:24;45.90;;;25.07;;
6436;SDS011;3251;53.550;9.918;2022-10-22T05:51:50;44.73;;;24.73;;
6436;SDS011;3251;53.550;9.918;2022-10-22T05:54:17;44.40;;;25.07;;
6436;SDS011;3251;53.550;9.918;2022-10-22T05:56:44;49.23;;;24.83;;
6436;SDS011;3251;53.550;9.918;2022-10-22T05:59:10;46.70;;;27.40;;
6436;SDS011;3251;53.550;9.918;2022-10-22T06:01:37;44.10;;;26.60;;
6436;SDS011;3251;53.550;9.918;2022-10-22T06:04:04;41.50;;;26.77;;
6436;SDS011;3251;53.550;9.918;2022-10-22T06:06:32;48.63;;;27.20;;
6436;SDS011;3251;53.550;9.918;2022-10-22T06:11:37;52.20;;;26.17;;
6436;SDS011;3251;53.550;9.918;2022-10-22T06:14:03;43.23;;;26.30;;
6436;SDS011;3251;53.550;9.918;2022-10-22T06:16:30;58.27;;;27.00;;
6436;SDS011;3251;53.550;9.918;2022-10-22T06:18:59;46.40;;;26.80;;
6436;SDS011;3251;53.550;9.918;2022-10-22T06:21:26;48.20;;;27.30;;
6436;SDS011;3251;53.550;9.918;2022-10-22T06:23:54;45.47;;;25.77;;
6436;SDS011;3251;53.550;9.918;2022-10-22T06:26:20;50.90;;;25.40;;
6436;SDS011;3251;53.550;9.918;2022-10-22T06:28:46;43.80;;;24.77;;
6436;SDS011;3251;53.550;9.918;2022-10-22T06:31:12;42.83;;;25.87;;
6436;SDS011;3251;53.550;9.918;2022-10-22T06:33:38;52.37;;;27.37;;
6436;SDS011;3251;53.550;9.918;2022-10-22T06:36:12;51.00;;;26.00;;
6436;SDS011;3251;53.550;9.918;2022-10-22T06:38:38;56.67;;;26.33;;
6436;SDS011;3251;53.550;9.918;2022-10-22T06:41:12;44.70;;;25.80;;
6436;SDS011;3251;53.550;9.918;2022-10-22T06:43:39;52.70;;;26.20;;
6436;SDS011;3251;53.550;9.918;2022-10-22T06:46:06;58.63;;;27.77;;
6436;SDS011;3251;53.550;9.918;2022-10-22T06:48:33;51.47;;;28.20;;
6436;SDS011;3251;53.550;9.918;2022-10-22T06:51:06;45.77;;;24.20;;
6436;SDS011;3251;53.550;9.918;2022-10-22T06:53:32;51.03;;;25.13;;
6436;SDS011;3251;53.550;9.918;2022-10-22T06:56:01;52.67;;;28.00;;
6436;SDS011;3251;53.550;9.918;2022-10-22T06:58:29;43.67;;;24.80;;
6436;SDS011;3251;53.550;9.918;2022-10-22T07:01:29;43.17;;;24.03;;
6436;SDS011;3251;53.550;9.918;2022-10-22T07:03:48;37.30;;;23.13;;
6436;SDS011;3251;53.550;9.918;2022-10-22T07:06:15;48.60;;;24.33;;
6436;SDS011;3251;53.550;9.918;2022-10-22T07:08:41;42.87;;;25.00;;
6436;SDS011;3251;53.550;9.918;2022-10-22T07:11:11;42.37;;;25.27;;
6436;SDS011;3251;53.550;9.918;2022-10-22T07:13:38;39.50;;;23.37;;
6436;SDS011;3251;53.550;9.918;2022-10-22T07:16:05;43.23;;;23.40;;
6436;SDS011;3251;53.550;9.918;2022-10-22T07:18:32;44.20;;;23.93;;
6436;SDS011;3251;53.550;9.918;2022-10-22T07:20:58;41.77;;;25.97;;
6436;SDS011;3251;53.550;9.918;2022-10-22T07:23:25;38.50;;;23.83;;
6436;SDS011;3251;53.550;9.918;2022-10-22T07:25:51;35.63;;;21.30;;
6436;SDS011;3251;53.550;9.918;2022-10-22T07:28:17;41.33;;;22.83;;
6436;SDS011;3251;53.550;9.918;2022-10-22T07:30:43;37.47;;;24.20;;
6436;SDS011;3251;53.550;9.918;2022-10-22T07:33:09;33.70;;;22.90;;
6436;SDS011;3251;53.550;9.918;2022-10-22T07:35:36;47.67;;;25.20;;
6436;SDS011;3251;53.550;9.918;2022-10-22T07:38:03;40.60;;;23.80;;
6436;SDS011;3251;53.550;9.918;2022-10-22T07:40:29;41.70;;;25.40;;
6436;SDS011;3251;53.550;9.918;2022-10-22T07:42:55;37.10;;;23.70;;
6436;SDS011;3251;53.550;9.918;2022-10-22T07:45:22;42.37;;;24.07;;
6436;SDS011;3251;53.550;9.918;2022-10-22T07:47:48;32.97;;;22.40;;
6436;SDS011;3251;53.550;9.918;2022-10-22T07:50:14;36.93;;;21.93;;
6436;SDS011;3251;53.550;9.918;2022-10-22T07:52:40;36.60;;;22.33;;
6436;SDS011;3251;53.550;9.918;2022-10-22T07:55:07;33.03;;;21.43;;
6436;SDS011;3251;53.550;9.918;2022-10-22T07:57:33;31.20;;;20.73;;
6436;SDS011;3251;53.550;9.918;2022-10-22T08:00:01;30.87;;;20.50;;
6436;SDS011;3251;53.550;9.918;2022-10-22T08:02:36;36.50;;;20.90;;
6436;SDS011;3251;53.550;9.918;2022-10-22T08:05:03;32.60;;;21.73;;
6436;SDS011;3251;53.550;9.918;2022-10-22T08:07:29;30.57;;;20.07;;
6436;SDS011;3251;53.550;9.918;2022-10-22T08:09:55;30.50;;;19.30;;
6436;SDS011;3251;53.550;9.918;2022-10-22T08:12:21;30.27;;;20.60;;
6436;SDS011;3251;53.550;9.918;2022-10-22T08:14:47;34.30;;;20.27;;
6436;SDS011;3251;53.550;9.918;2022-10-22T08:17:13;31.47;;;19.23;;
6436;SDS011;3251;53.550;9.918;2022-10-22T08:19:39;31.73;;;20.90;;
6436;SDS011;3251;53.550;9.918;2022-10-22T08:22:05;32.70;;;19.70;;
6436;SDS011;3251;53.550;9.918;2022-10-22T08:24:31;30.27;;;19.57;;
6436;SDS011;3251;53.550;9.918;2022-10-22T08:26:57;27.77;;;18.70;;
6436;SDS011;3251;53.550;9.918;2022-10-22T08:29:23;32.70;;;21.17;;
6436;SDS011;3251;53.550;9.918;2022-10-22T08:31:50;36.27;;;19.50;;
6436;SDS011;3251;53.550;9.918;2022-10-22T08:34:17;38.00;;;23.50;;
6436;SDS011;3251;53.550;9.918;2022-10-22T08:36:44;37.23;;;23.63;;
6436;SDS011;3251;53.550;9.918;2022-10-22T08:39:10;32.27;;;19.23;;
6436;SDS011;3251;53.550;9.918;2022-10-22T08:47:15;26.57;;;15.57;;
6436;SDS011;3251;53.550;9.918;2022-10-22T08:49:46;23.20;;;14.40;;
6436;SDS011;3251;53.550;9.918;2022-10-22T08:52:13;29.67;;;15.20;;
6436;SDS011;3251;53.550;9.918;2022-10-22T08:54:51;33.87;;;14.70;;
6436;SDS011;3251;53.550;9.918;2022-10-22T09:02:36;42.30;;;22.17;;
6436;SDS011;3251;53.550;9.918;2022-10-22T09:05:13;29.90;;;18.57;;
6436;SDS011;3251;53.550;9.918;2022-10-22T09:07:41;29.13;;;18.47;;
6436;SDS011;3251;53.550;9.918;2022-10-22T09:10:12;27.17;;;14.30;;
6436;SDS011;3251;53.550;9.918;2022-10-22T09:12:39;26.03;;;13.73;;
6436;SDS011;3251;53.550;9.918;2022-10-22T09:15:05;24.30;;;13.30;;
6436;SDS011;3251;53.550;9.918;2022-10-22T09:17:37;37.20;;;13.23;;
6436;SDS011;3251;53.550;9.918;2022-10-22T09:22:41;81.57;;;34.40;;
6436;SDS011;3251;53.550;9.918;2022-10-22T09:25:22;34.60;;;20.93;;
6436;SDS011;3251;53.550;9.918;2022-10-22T09:27:49;26.03;;;17.97;;
6436;SDS011;3251;53.550;9.918;2022-10-22T09:30:18;28.07;;;16.03;;
6436;SDS011;3251;53.550;9.918;2022-10-22T09:32:45;24.20;;;12.40;;
6436;SDS011;3251;53.550;9.918;2022-10-22T09:35:12;17.27;;;11.33;;
6436;SDS011;3251;53.550;9.918;2022-10-22T09:37:49;34.30;;;12.20;;
6436;SDS011;3251;53.550;9.918;2022-10-22T09:40:16;36.03;;;16.83;;
6436;SDS011;3251;53.550;9.918;2022-10-22T09:42:42;52.70;;;33.83;;
6436;SDS011;3251;53.550;9.918;2022-10-22T09:45:22;25.40;;;16.70;;
6436;SDS011;3251;53.550;9.918;2022-10-22T09:47:49;27.30;;;12.40;;
6436;SDS011;3251;53.550;9.918;2022-10-22T09:50:18;20.53;;;11.27;;
6436;SDS011;3251;53.550;9.918;2022-10-22T09:52:45;24.43;;;10.33;;
6436;SDS011;3251;53.550;9.918;2022-10-22T09:55:20;20.87;;;9.20;;
6436;SDS011;3251;53.550;9.918;2022-10-22T09:57:56;24.30;;;11.80;;
6436;SDS011;3251;53.550;9.918;2022-10-22T10:00:23;15.93;;;8.57;;
6436;SDS011;3251;53.550;9.918;2022-10-22T10:02:53;26.80;;;10.70;;
6436;SDS011;3251;53.550;9.918;2022-10-22T10:05:24;14.67;;;8.20;;
6436;SDS011;3251;53.550;9.918;2022-10-22T10:07:50;14.93;;;8.27;;
6436;SDS011;3251;53.550;9.918;2022-10-22T10:10:18;13.13;;;8.33;;
6436;SDS011;3251;53.550;9.918;2022-10-22T10:15:52;14.90;;;7.57;;
6436;SDS011;3251;53.550;9.918;2022-10-22T10:18:24;15.00;;;7.50;;
6436;SDS011;3251;53.550;9.918;2022-10-22T10:20:59;16.80;;;8.80;;
6436;SDS011;3251;53.550;9.918;2022-10-22T10:31:03;23.50;;;11.70;;
6436;SDS011;3251;53.550;9.918;2022-10-22T10:34:18;19.43;;;7.77;;
6436;SDS011;3251;53.550;9.918;2022-10-22T10:36:20;16.77;;;6.47;;
6436;SDS011;3251;53.550;9.918;2022-10-22T10:41:27;12.30;;;5.73;;
6436;SDS011;3251;53.550;9.918;2022-10-22T10:49:08;10.80;;;4.03;;
6436;SDS011;3251;53.550;9.918;2022-10-22T11:06:38;9.83;;;3.87;;
6436;SDS011;3251;53.550;9.918;2022-10-22T11:09:06;10.70;;;4.13;;
6436;SDS011;3251;53.550;9.918;2022-10-22T11:12:10;9.57;;;4.07;;
6436;SDS011;3251;53.550;9.918;2022-10-22T11:14:33;3.77;;;3.43;;
6436;SDS011;3251;53.550;9.918;2022-10-22T11:17:02;6.40;;;4.00;;
6436;SDS011;3251;53.550;9.918;2022-10-22T11:19:37;7.37;;;4.70;;
6436;SDS011;3251;53.550;9.918;2022-10-22T11:22:16;13.80;;;4.10;;
6436;SDS011;3251;53.550;9.918;2022-10-22T11:24:45;11.43;;;5.00;;
6436;SDS011;3251;53.550;9.918;2022-10-22T11:29:48;9.67;;;2.97;;
6436;SDS011;3251;53.550;9.918;2022-10-22T11:32:18;8.70;;;3.10;;
6436;SDS011;3251;53.550;9.918;2022-10-22T11:34:46;14.13;;;5.60;;
6436;SDS011;3251;53.550;9.918;2022-10-22T11:37:13;10.27;;;4.00;;
6436;SDS011;3251;53.550;9.918;2022-10-22T11:39:42;15.03;;;4.97;;
6436;SDS011;3251;53.550;9.918;2022-10-22T11:42:09;9.47;;;6.43;;
6436;SDS011;3251;53.550;9.918;2022-10-22T11:44:57;14.60;;;4.57;;
6436;SDS011;3251;53.550;9.918;2022-10-22T11:47:33;10.13;;;4.93;;
6436;SDS011;3251;53.550;9.918;2022-10-22T11:50:17;10.13;;;6.13;;
6436;SDS011;3251;53.550;9.918;2022-10-22T11:55:33;8.87;;;5.17;;
6436;SDS011;3251;53.550;9.918;2022-10-22T12:08:27;18.30;;;4.83;;
6436;SDS011;3251;53.550;9.918;2022-10-22T12:10:56;10.83;;;6.07;;
6436;SDS011;3251;53.550;9.918;2022-10-22T12:13:29;15.73;;;5.17;;
6436;SDS011;3251;53.550;9.918;2022-10-22T12:16:01;6.47;;;4.00;;
6436;SDS011;3251;53.550;9.918;2022-10-22T12:18:37;9.80;;;5.53;;
6436;SDS011;3251;53.550;9.918;2022-10-22T12:21:04;13.30;;;5.47;;
6436;SDS011;3251;53.550;9.918;2022-10-22T12:23:32;13.10;;;3.97;;
6436;SDS011;3251;53.550;9.918;2022-10-22T12:25:59;16.93;;;5.60;;
6436;SDS011;3251;53.550;9.918;2022-10-22T12:28:26;9.23;;;5.43;;
6436;SDS011;3251;53.550;9.918;2022-10-22T12:30:52;9.93;;;4.77;;
6436;SDS011;3251;53.550;9.918;2022-10-22T12:33:21;8.40;;;5.13;;
6436;SDS011;3251;53.550;9.918;2022-10-22T12:35:49;13.20;;;6.70;;
6436;SDS011;3251;53.550;9.918;2022-10-22T12:38:19;13.00;;;4.90;;
6436;SDS011;3251;53.550;9.918;2022-10-22T12:40:46;16.57;;;6.53;;
6436;SDS011;3251;53.550;9.918;2022-10-22T12:43:13;9.17;;;6.00;;
6436;SDS011;3251;53.550;9.918;2022-10-22T12:45:41;10.83;;;5.97;;
6436;SDS011;3251;53.550;9.918;2022-10-22T12:48:25;15.10;;;7.13;;
6436;SDS011;3251;53.550;9.918;2022-10-22T12:50:56;15.07;;;9.50;;
6436;SDS011;3251;53.550;9.918;2022-10-22T12:53:25;10.10;;;5.60;;
6436;SDS011;3251;53.550;9.918;2022-10-22T12:55:53;13.73;;;5.40;;
6436;SDS011;3251;53.550;9.918;2022-10-22T12:58:20;6.07;;;5.17;;
6436;SDS011;3251;53.550;9.918;2022-10-22T13:00:47;12.70;;;5.43;;
6436;SDS011;3251;53.550;9.918;2022-10-22T13:03:27;20.40;;;6.97;;
6436;SDS011;3251;53.550;9.918;2022-10-22T13:05:54;13.90;;;7.10;;
6436;SDS011;3251;53.550;9.918;2022-10-22T13:08:21;13.90;;;7.90;;
6436;SDS011;3251;53.550;9.918;2022-10-22T13:10:52;16.63;;;9.60;;
6436;SDS011;3251;53.550;9.918;2022-10-22T13:16:11;57.77;;;19.37;;
6436;SDS011;3251;53.550;9.918;2022-10-22T13:18:37;15.30;;;6.00;;
6436;SDS011;3251;53.550;9.918;2022-10-22T13:21:03;44.23;;;17.60;;
6436;SDS011;3251;53.550;9.918;2022-10-22T13:23:31;25.70;;;7.83;;
6436;SDS011;3251;53.550;9.918;2022-10-22T13:28:36;8.63;;;4.87;;
6436;SDS011;3251;53.550;9.918;2022-10-22T13:31:10;13.53;;;5.77;;
6436;SDS011;3251;53.550;9.918;2022-10-22T13:33:40;10.53;;;5.13;;
6436;SDS011;3251;53.550;9.918;2022-10-22T13:36:09;14.30;;;4.67;;
6436;SDS011;3251;53.550;9.918;2022-10-22T13:38:37;10.27;;;5.17;;
6436;SDS011;3251;53.550;9.918;2022-10-22T13:41:04;7.80;;;4.50;;
6436;SDS011;3251;53.550;9.918;2022-10-22T13:43:30;10.03;;;4.67;;
6436;SDS011;3251;53.550;9.918;2022-10-22T13:45:57;7.60;;;3.30;;
6436;SDS011;3251;53.550;9.918;2022-10-22T13:48:24;22.10;;;5.50;;
6436;SDS011;3251;53.550;9.918;2022-10-22T13:50:51;14.47;;;4.27;;
6436;SDS011;3251;53.550;9.918;2022-10-22T13:53:24;19.23;;;4.90;;
6436;SDS011;3251;53.550;9.918;2022-10-22T13:55:51;9.30;;;4.20;;
6436;SDS011;3251;53.550;9.918;2022-10-22T13:58:18;13.60;;;4.23;;
6436;SDS011;3251;53.550;9.918;2022-10-22T14:00:45;5.37;;;3.90;;
6436;SDS011;3251;53.550;9.918;2022-10-22T14:03:12;17.17;;;5.40;;
6436;SDS011;3251;53.550;9.918;2022-10-22T14:05:39;9.63;;;4.00;;
6436;SDS011;3251;53.550;9.918;2022-10-22T14:08:13;14.17;;;4.53;;
6436;SDS011;3251;53.550;9.918;2022-10-22T14:10:39;13.00;;;4.10;;
6436;SDS011;3251;53.550;9.918;2022-10-22T14:13:06;22.60;;;3.73;;
6436;SDS011;3251;53.550;9.918;2022-10-22T14:15:32;4.90;;;3.20;;
6436;SDS011;3251;53.550;9.918;2022-10-22T14:17:58;11.00;;;3.50;;
6436;SDS011;3251;53.550;9.918;2022-10-22T14:20:25;12.33;;;3.93;;
6436;SDS011;3251;53.550;9.918;2022-10-22T14:22:52;10.03;;;2.93;;
6436;SDS011;3251;53.550;9.918;2022-10-22T14:25:19;7.63;;;3.20;;
6436;SDS011;3251;53.550;9.918;2022-10-22T14:27:46;8.53;;;5.63;;
6436;SDS011;3251;53.550;9.918;2022-10-22T14:30:13;12.87;;;3.30;;
6436;SDS011;3251;53.550;9.918;2022-10-22T14:32:40;7.90;;;3.93;;
6436;SDS011;3251;53.550;9.918;2022-10-22T14:35:06;14.63;;;6.37;;
6436;SDS011;3251;53.550;9.918;2022-10-22T14:37:32;21.60;;;8.10;;
6436;SDS011;3251;53.550;9.918;2022-10-22T14:39:58;14.63;;;6.90;;
6436;SDS011;3251;53.550;9.918;2022-10-22T14:42:26;21.83;;;9.17;;
6436;SDS011;3251;53.550;9.918;2022-10-22T14:44:53;10.50;;;4.17;;
6436;SDS011;3251;53.550;9.918;2022-10-22T14:47:19;13.73;;;5.30;;
6436;SDS011;3251;53.550;9.918;2022-10-22T14:49:46;8.90;;;2.77;;
6436;SDS011;3251;53.550;9.918;2022-10-22T14:52:12;9.17;;;4.97;;
6436;SDS011;3251;53.550;9.918;2022-10-22T14:54:38;18.70;;;6.40;;
6436;SDS011;3251;53.550;9.918;2022-10-22T14:57:04;10.10;;;2.93;;
6436;SDS011;3251;53.550;9.918;2022-10-22T14:59:30;15.90;;;4.10;;
6436;SDS011;3251;53.550;9.918;2022-10-22T15:01:56;6.43;;;2.43;;
6436;SDS011;3251;53.550;9.918;2022-10-22T15:04:22;9.17;;;2.50;;
6436;SDS011;3251;53.550;9.918;2022-10-22T15:06:51;14.53;;;3.87;;
6436;SDS011;3251;53.550;9.918;2022-10-22T15:09:21;11.60;;;2.60;;
6436;SDS011;3251;53.550;9.918;2022-10-22T15:11:47;7.70;;;3.27;;
6436;SDS011;3251;53.550;9.918;2022-10-22T15:14:13;11.03;;;2.73;;
6436;SDS011;3251;53.550;9.918;2022-10-22T15:16:39;8.87;;;3.27;;
6436;SDS011;3251;53.550;9.918;2022-10-22T15:19:06;6.37;;;3.27;;
6436;SDS011;3251;53.550;9.918;2022-10-22T15:21:32;9.97;;;4.83;;
6436;SDS011;3251;53.550;9.918;2022-10-22T15:23:59;37.73;;;14.50;;
6436;SDS011;3251;53.550;9.918;2022-10-22T15:26:25;12.30;;;4.93;;
6436;SDS011;3251;53.550;9.918;2022-10-22T15:28:53;43.57;;;11.63;;
6436;SDS011;3251;53.550;9.918;2022-10-22T15:34:05;11.83;;;4.40;;
6436;SDS011;3251;53.550;9.918;2022-10-22T15:36:31;10.17;;;4.80;;
6436;SDS011;3251;53.550;9.918;2022-10-22T15:38:57;9.27;;;4.43;;
6436;SDS011;3251;53.550;9.918;2022-10-22T15:41:23;6.20;;;3.17;;
6436;SDS011;3251;53.550;9.918;2022-10-22T15:43:49;5.60;;;4.00;;
6436;SDS011;3251;53.550;9.918;2022-10-22T15:46:18;9.57;;;3.67;;
6436;SDS011;3251;53.550;9.918;2022-10-22T15:48:45;17.13;;;3.70;;
6436;SDS011;3251;53.550;9.918;2022-10-22T15:51:16;13.00;;;4.23;;
6436;SDS011;3251;53.550;9.918;2022-10-22T15:53:42;7.53;;;3.77;;
6436;SDS011;3251;53.550;9.918;2022-10-22T15:56:09;16.47;;;5.70;;
6436;SDS011;3251;53.550;9.918;2022-10-22T15:58:36;10.20;;;4.03;;
6436;SDS011;3251;53.550;9.918;2022-10-22T16:01:03;18.80;;;8.30;;
6436;SDS011;3251;53.550;9.918;2022-10-22T16:03:29;16.13;;;11.90;;
6436;SDS011;3251;53.550;9.918;2022-10-22T16:05:55;32.77;;;22.43;;
6436;SDS011;3251;53.550;9.918;2022-10-22T16:08:22;22.33;;;11.63;;
6436;SDS011;3251;53.550;9.918;2022-10-22T16:10:49;12.53;;;7.10;;
6436;SDS011;3251;53.550;9.918;2022-10-22T16:13:15;10.33;;;4.57;;
6436;SDS011;3251;53.550;9.918;2022-10-22T16:15:41;8.10;;;4.83;;
6436;SDS011;3251;53.550;9.918;2022-10-22T16:18:07;17.30;;;4.70;;
6436;SDS011;3251;53.550;9.918;2022-10-22T16:20:38;13.27;;;4.97;;
6436;SDS011;3251;53.550;9.918;2022-10-22T16:23:04;12.37;;;5.10;;
6436;SDS011;3251;53.550;9.918;2022-10-22T16:25:36;6.27;;;3.63;;
6436;SDS011;3251;53.550;9.918;2022-10-22T16:28:02;6.20;;;4.80;;
6436;SDS011;3251;53.550;9.918;2022-10-22T16:30:28;9.00;;;4.70;;
6436;SDS011;3251;53.550;9.918;2022-10-22T16:32:54;8.23;;;4.90;;
6436;SDS011;3251;53.550;9.918;2022-10-22T16:35:20;10.60;;;4.90;;
6436;SDS011;3251;53.550;9.918;2022-10-22T16:37:46;13.43;;;5.00;;